sensor_id;sensor_type;location;lat;lon;timestamp;temperature;humidity
70154;DHT22;57519;51.494;-2.626;2022-10-14T00:01:50;10.52;93.09
70154;DHT22;57519;51.494;-2.626;2022-10-14T00:04:16;10.48;93.13
70154;DHT22;57519;51.494;-2.626;2022-10-14T00:06:41;10.53;93.41
70154;DHT22;57519;51.494;-2.626;2022-10-14T00:09:08;10.57;93.56
70154;DHT22;57519;51.494;-2.626;2022-10-14T00:11:35;10.56;93.45
70154;DHT22;57519;51.494;-2.626;2022-10-14T00:14:06;10.55;93.35
70154;DHT22;57519;51.494;-2.626;2022-10-14T00:16:35;10.50;93.32
70154;DHT22;57519;51.494;-2.626;2022-10-14T00:19:01;10.49;93.25
70154;DHT22;57519;51.494;-2.626;2022-10-14T00:21:27;10.52;93.42
70154;DHT22;57519;51.494;-2.626;2022-10-14T00:23:54;10.49;93.36
70154;DHT22;57519;51.494;-2.626;2022-10-14T00:26:25;10.48;93.46
70154;DHT22;57519;51.494;-2.626;2022-10-14T00:28:51;10.50;93.58
70154;DHT22;57519;51.494;-2.626;2022-10-14T00:31:17;10.49;93.64
70154;DHT22;57519;51.494;-2.626;2022-10-14T00:33:43;10.52;93.58
70154;DHT22;57519;51.494;-2.626;2022-10-14T00:36:13;10.46;93.45
70154;DHT22;57519;51.494;-2.626;2022-10-14T00:38:39;10.43;93.44
70154;DHT22;57519;51.494;-2.626;2022-10-14T00:41:06;10.39;93.42
70154;DHT22;57519;51.494;-2.626;2022-10-14T00:43:57;10.32;93.39
70154;DHT22;57519;51.494;-2.626;2022-10-14T00:46:24;10.36;93.56
70154;DHT22;57519;51.494;-2.626;2022-10-14T00:48:50;10.33;93.59
70154;DHT22;57519;51.494;-2.626;2022-10-14T00:51:17;10.35;93.90
70154;DHT22;57519;51.494;-2.626;2022-10-14T00:53:43;10.42;94.07
70154;DHT22;57519;51.494;-2.626;2022-10-14T00:56:10;10.41;94.05
70154;DHT22;57519;51.494;-2.626;2022-10-14T00:58:37;10.45;94.13
70154;DHT22;57519;51.494;-2.626;2022-10-14T01:01:02;10.43;94.06
70154;DHT22;57519;51.494;-2.626;2022-10-14T01:03:28;10.42;94.00
70154;DHT22;57519;51.494;-2.626;2022-10-14T01:08:26;10.48;93.91
70154;DHT22;57519;51.494;-2.626;2022-10-14T01:11:10;10.53;94.02
70154;DHT22;57519;51.494;-2.626;2022-10-14T01:13:42;10.52;93.90
70154;DHT22;57519;51.494;-2.626;2022-10-14T01:19:11;10.50;94.00
70154;DHT22;57519;51.494;-2.626;2022-10-14T01:27:31;10.57;94.10
70154;DHT22;57519;51.494;-2.626;2022-10-14T01:30:07;10.57;94.16
70154;DHT22;57519;51.494;-2.626;2022-10-14T01:32:35;10.59;94.08
70154;DHT22;57519;51.494;-2.626;2022-10-14T01:37:36;10.60;94.03
70154;DHT22;57519;51.494;-2.626;2022-10-14T01:40:11;10.66;94.06
70154;DHT22;57519;51.494;-2.626;2022-10-14T01:42:39;10.60;93.98
70154;DHT22;57519;51.494;-2.626;2022-10-14T01:45:17;10.60;94.03
70154;DHT22;57519;51.494;-2.626;2022-10-14T01:47:49;10.62;94.03
70154;DHT22;57519;51.494;-2.626;2022-10-14T01:50:18;10.59;94.01
70154;DHT22;57519;51.494;-2.626;2022-10-14T01:52:51;10.66;94.10
70154;DHT22;57519;51.494;-2.626;2022-10-14T01:55:21;10.64;94.05
70154;DHT22;57519;51.494;-2.626;2022-10-14T01:57:50;10.64;94.03
70154;DHT22;57519;51.494;-2.626;2022-10-14T02:00:16;10.66;94.07
70154;DHT22;57519;51.494;-2.626;2022-10-14T02:02:41;10.66;94.11
70154;DHT22;57519;51.494;-2.626;2022-10-14T02:08:19;10.70;94.15
70154;DHT22;57519;51.494;-2.626;2022-10-14T02:16:50;10.79;94.25
70154;DHT22;57519;51.494;-2.626;2022-10-14T02:19:26;10.80;94.29
70154;DHT22;57519;51.494;-2.626;2022-10-14T02:22:18;10.81;94.27
70154;DHT22;57519;51.494;-2.626;2022-10-14T02:24:50;10.83;94.38
70154;DHT22;57519;51.494;-2.626;2022-10-14T02:27:19;10.89;94.37
70154;DHT22;57519;51.494;-2.626;2022-10-14T02:29:46;10.87;94.34
70154;DHT22;57519;51.494;-2.626;2022-10-14T02:32:14;10.87;94.23
70154;DHT22;57519;51.494;-2.626;2022-10-14T02:34:45;10.85;94.14
70154;DHT22;57519;51.494;-2.626;2022-10-14T02:37:14;10.84;94.16
70154;DHT22;57519;51.494;-2.626;2022-10-14T02:39:44;10.89;94.29
70154;DHT22;57519;51.494;-2.626;2022-10-14T02:42:11;10.94;94.32
70154;DHT22;57519;51.494;-2.626;2022-10-14T02:44:37;10.94;94.30
70154;DHT22;57519;51.494;-2.626;2022-10-14T02:47:02;10.94;94.36
70154;DHT22;57519;51.494;-2.626;2022-10-14T02:49:28;10.93;94.35
70154;DHT22;57519;51.494;-2.626;2022-10-14T02:51:53;10.94;94.40
70154;DHT22;57519;51.494;-2.626;2022-10-14T02:54:19;10.96;94.40
70154;DHT22;57519;51.494;-2.626;2022-10-14T02:56:44;10.97;94.37
70154;DHT22;57519;51.494;-2.626;2022-10-14T02:59:10;11.00;94.56
70154;DHT22;57519;51.494;-2.626;2022-10-14T03:01:35;11.04;94.60
70154;DHT22;57519;51.494;-2.626;2022-10-14T03:04:00;11.14;94.67
70154;DHT22;57519;51.494;-2.626;2022-10-14T03:06:26;11.18;94.65
70154;DHT22;57519;51.494;-2.626;2022-10-14T03:08:52;11.18;94.63
70154;DHT22;57519;51.494;-2.626;2022-10-14T03:11:17;11.24;94.64
70154;DHT22;57519;51.494;-2.626;2022-10-14T03:13:43;11.29;94.61
70154;DHT22;57519;51.494;-2.626;2022-10-14T03:16:08;11.36;94.67
70154;DHT22;57519;51.494;-2.626;2022-10-14T03:18:33;11.36;94.67
70154;DHT22;57519;51.494;-2.626;2022-10-14T03:20:59;11.38;94.62
70154;DHT22;57519;51.494;-2.626;2022-10-14T03:23:24;11.45;94.67
70154;DHT22;57519;51.494;-2.626;2022-10-14T03:25:50;11.49;94.70
70154;DHT22;57519;51.494;-2.626;2022-10-14T03:28:15;11.54;94.70
70154;DHT22;57519;51.494;-2.626;2022-10-14T03:30:41;11.58;94.67
70154;DHT22;57519;51.494;-2.626;2022-10-14T03:33:06;11.62;94.69
70154;DHT22;57519;51.494;-2.626;2022-10-14T03:35:32;11.66;94.67
70154;DHT22;57519;51.494;-2.626;2022-10-14T03:37:57;11.73;94.72
70154;DHT22;57519;51.494;-2.626;2022-10-14T03:40:26;11.76;94.67
70154;DHT22;57519;51.494;-2.626;2022-10-14T03:42:51;11.79;94.57
70154;DHT22;57519;51.494;-2.626;2022-10-14T03:45:17;11.84;94.50
70154;DHT22;57519;51.494;-2.626;2022-10-14T03:47:42;11.84;94.45
70154;DHT22;57519;51.494;-2.626;2022-10-14T03:50:08;11.91;94.38
70154;DHT22;57519;51.494;-2.626;2022-10-14T03:52:33;11.98;94.38
70154;DHT22;57519;51.494;-2.626;2022-10-14T03:54:58;12.04;94.30
70154;DHT22;57519;51.494;-2.626;2022-10-14T03:57:24;12.08;94.27
70154;DHT22;57519;51.494;-2.626;2022-10-14T03:59:50;12.07;94.11
70154;DHT22;57519;51.494;-2.626;2022-10-14T04:02:15;12.11;94.03
70154;DHT22;57519;51.494;-2.626;2022-10-14T04:04:41;12.11;93.84
70154;DHT22;57519;51.494;-2.626;2022-10-14T04:07:07;12.13;93.84
70154;DHT22;57519;51.494;-2.626;2022-10-14T04:09:32;12.14;93.89
70154;DHT22;57519;51.494;-2.626;2022-10-14T04:11:58;12.14;93.86
70154;DHT22;57519;51.494;-2.626;2022-10-14T04:14:24;12.18;93.78
70154;DHT22;57519;51.494;-2.626;2022-10-14T04:16:50;12.20;93.52
70154;DHT22;57519;51.494;-2.626;2022-10-14T04:19:16;12.20;93.42
70154;DHT22;57519;51.494;-2.626;2022-10-14T04:21:41;12.20;93.41
70154;DHT22;57519;51.494;-2.626;2022-10-14T04:24:07;12.23;93.18
70154;DHT22;57519;51.494;-2.626;2022-10-14T04:26:32;12.27;93.02
70154;DHT22;57519;51.494;-2.626;2022-10-14T04:28:58;12.30;92.90
70154;DHT22;57519;51.494;-2.626;2022-10-14T04:31:23;12.34;92.87
70154;DHT22;57519;51.494;-2.626;2022-10-14T04:33:49;12.35;92.65
70154;DHT22;57519;51.494;-2.626;2022-10-14T04:36:14;12.40;92.62
70154;DHT22;57519;51.494;-2.626;2022-10-14T04:38:40;12.42;92.67
70154;DHT22;57519;51.494;-2.626;2022-10-14T04:41:05;12.42;92.41
70154;DHT22;57519;51.494;-2.626;2022-10-14T04:43:31;12.45;92.24
70154;DHT22;57519;51.494;-2.626;2022-10-14T04:45:56;12.46;92.23
70154;DHT22;57519;51.494;-2.626;2022-10-14T04:48:22;12.46;92.15
70154;DHT22;57519;51.494;-2.626;2022-10-14T04:50:51;12.48;92.27
70154;DHT22;57519;51.494;-2.626;2022-10-14T04:53:17;12.48;92.22
70154;DHT22;57519;51.494;-2.626;2022-10-14T04:55:46;12.49;92.09
70154;DHT22;57519;51.494;-2.626;2022-10-14T04:58:14;12.51;91.94
70154;DHT22;57519;51.494;-2.626;2022-10-14T05:00:39;12.53;91.85
70154;DHT22;57519;51.494;-2.626;2022-10-14T05:03:04;12.56;91.74
70154;DHT22;57519;51.494;-2.626;2022-10-14T05:05:30;12.55;91.62
70154;DHT22;57519;51.494;-2.626;2022-10-14T05:07:55;12.59;91.51
70154;DHT22;57519;51.494;-2.626;2022-10-14T05:10:21;12.56;91.49
70154;DHT22;57519;51.494;-2.626;2022-10-14T05:12:47;12.58;91.52
70154;DHT22;57519;51.494;-2.626;2022-10-14T05:15:13;12.61;91.58
70154;DHT22;57519;51.494;-2.626;2022-10-14T05:17:38;12.63;91.29
70154;DHT22;57519;51.494;-2.626;2022-10-14T05:20:05;12.59;91.37
70154;DHT22;57519;51.494;-2.626;2022-10-14T05:22:30;12.59;91.36
70154;DHT22;57519;51.494;-2.626;2022-10-14T05:24:56;12.65;91.50
70154;DHT22;57519;51.494;-2.626;2022-10-14T05:27:21;12.63;91.16
70154;DHT22;57519;51.494;-2.626;2022-10-14T05:29:47;12.63;91.14
70154;DHT22;57519;51.494;-2.626;2022-10-14T05:32:14;12.62;91.16
70154;DHT22;57519;51.494;-2.626;2022-10-14T05:34:39;12.61;91.12
70154;DHT22;57519;51.494;-2.626;2022-10-14T05:37:05;12.61;91.13
70154;DHT22;57519;51.494;-2.626;2022-10-14T05:39:30;12.63;91.12
70154;DHT22;57519;51.494;-2.626;2022-10-14T05:41:56;12.63;91.11
70154;DHT22;57519;51.494;-2.626;2022-10-14T05:44:21;12.68;91.14
70154;DHT22;57519;51.494;-2.626;2022-10-14T05:46:47;12.69;90.85
70154;DHT22;57519;51.494;-2.626;2022-10-14T05:49:12;12.79;90.37
70154;DHT22;57519;51.494;-2.626;2022-10-14T05:51:38;12.76;90.40
70154;DHT22;57519;51.494;-2.626;2022-10-14T05:54:04;12.82;90.05
70154;DHT22;57519;51.494;-2.626;2022-10-14T05:56:29;12.85;89.78
70154;DHT22;57519;51.494;-2.626;2022-10-14T05:58:55;12.86;89.85
70154;DHT22;57519;51.494;-2.626;2022-10-14T06:01:20;12.93;89.62
70154;DHT22;57519;51.494;-2.626;2022-10-14T06:03:49;12.93;89.36
70154;DHT22;57519;51.494;-2.626;2022-10-14T06:06:16;12.93;89.34
70154;DHT22;57519;51.494;-2.626;2022-10-14T06:08:42;12.97;89.30
70154;DHT22;57519;51.494;-2.626;2022-10-14T06:11:07;12.97;89.28
70154;DHT22;57519;51.494;-2.626;2022-10-14T06:13:36;12.97;89.21
70154;DHT22;57519;51.494;-2.626;2022-10-14T06:16:05;13.00;89.06
70154;DHT22;57519;51.494;-2.626;2022-10-14T06:18:32;13.06;88.85
70154;DHT22;57519;51.494;-2.626;2022-10-14T06:20:57;13.09;88.66
70154;DHT22;57519;51.494;-2.626;2022-10-14T06:23:23;13.07;88.74
70154;DHT22;57519;51.494;-2.626;2022-10-14T06:25:48;13.06;88.83
70154;DHT22;57519;51.494;-2.626;2022-10-14T06:28:14;13.11;88.68
70154;DHT22;57519;51.494;-2.626;2022-10-14T06:30:39;13.13;88.63
70154;DHT22;57519;51.494;-2.626;2022-10-14T06:33:05;13.17;88.76
70154;DHT22;57519;51.494;-2.626;2022-10-14T06:35:30;13.18;88.86
70154;DHT22;57519;51.494;-2.626;2022-10-14T06:37:56;13.17;88.96
70154;DHT22;57519;51.494;-2.626;2022-10-14T06:40:21;13.17;89.25
70154;DHT22;57519;51.494;-2.626;2022-10-14T06:42:47;13.18;89.24
70154;DHT22;57519;51.494;-2.626;2022-10-14T06:45:12;13.13;89.57
70154;DHT22;57519;51.494;-2.626;2022-10-14T06:47:38;13.14;89.60
70154;DHT22;57519;51.494;-2.626;2022-10-14T06:50:03;13.17;89.73
70154;DHT22;57519;51.494;-2.626;2022-10-14T06:52:29;13.11;89.98
70154;DHT22;57519;51.494;-2.626;2022-10-14T06:54:54;13.09;90.14
70154;DHT22;57519;51.494;-2.626;2022-10-14T06:57:20;13.16;90.16
70154;DHT22;57519;51.494;-2.626;2022-10-14T06:59:45;13.09;90.24
70154;DHT22;57519;51.494;-2.626;2022-10-14T07:02:11;13.10;90.10
70154;DHT22;57519;51.494;-2.626;2022-10-14T07:04:38;13.11;90.21
70154;DHT22;57519;51.494;-2.626;2022-10-14T07:07:03;13.09;90.16
70154;DHT22;57519;51.494;-2.626;2022-10-14T07:09:28;13.10;90.27
70154;DHT22;57519;51.494;-2.626;2022-10-14T07:11:54;13.07;90.14
70154;DHT22;57519;51.494;-2.626;2022-10-14T07:14:20;13.07;90.13
70154;DHT22;57519;51.494;-2.626;2022-10-14T07:16:45;13.07;90.04
70154;DHT22;57519;51.494;-2.626;2022-10-14T07:19:11;13.11;90.00
70154;DHT22;57519;51.494;-2.626;2022-10-14T07:21:37;13.14;89.91
70154;DHT22;57519;51.494;-2.626;2022-10-14T07:24:02;13.16;89.92
70154;DHT22;57519;51.494;-2.626;2022-10-14T07:26:31;13.18;89.90
70154;DHT22;57519;51.494;-2.626;2022-10-14T07:28:57;13.18;89.85
70154;DHT22;57519;51.494;-2.626;2022-10-14T07:31:23;13.24;89.88
70154;DHT22;57519;51.494;-2.626;2022-10-14T07:33:48;13.21;90.01
70154;DHT22;57519;51.494;-2.626;2022-10-14T07:36:16;13.27;89.98
70154;DHT22;57519;51.494;-2.626;2022-10-14T07:38:41;13.26;90.06
70154;DHT22;57519;51.494;-2.626;2022-10-14T07:41:10;13.30;90.31
70154;DHT22;57519;51.494;-2.626;2022-10-14T07:43:42;13.27;90.55
70154;DHT22;57519;51.494;-2.626;2022-10-14T07:46:08;13.30;90.95
70154;DHT22;57519;51.494;-2.626;2022-10-14T07:48:34;13.27;91.10
70154;DHT22;57519;51.494;-2.626;2022-10-14T07:50:59;13.24;91.48
70154;DHT22;57519;51.494;-2.626;2022-10-14T07:53:26;13.21;91.70
70154;DHT22;57519;51.494;-2.626;2022-10-14T07:55:52;13.21;91.86
70154;DHT22;57519;51.494;-2.626;2022-10-14T07:58:21;13.21;92.03
70154;DHT22;57519;51.494;-2.626;2022-10-14T08:00:52;13.21;92.16
70154;DHT22;57519;51.494;-2.626;2022-10-14T08:03:18;13.17;92.10
70154;DHT22;57519;51.494;-2.626;2022-10-14T08:05:45;13.16;92.29
70154;DHT22;57519;51.494;-2.626;2022-10-14T08:08:12;13.17;92.39
70154;DHT22;57519;51.494;-2.626;2022-10-14T08:10:38;13.16;92.52
70154;DHT22;57519;51.494;-2.626;2022-10-14T08:13:04;13.11;92.67
70154;DHT22;57519;51.494;-2.626;2022-10-14T08:15:37;13.11;92.81
70154;DHT22;57519;51.494;-2.626;2022-10-14T08:18:08;13.11;93.01
70154;DHT22;57519;51.494;-2.626;2022-10-14T08:20:35;13.14;93.18
70154;DHT22;57519;51.494;-2.626;2022-10-14T08:23:00;13.14;93.23
70154;DHT22;57519;51.494;-2.626;2022-10-14T08:25:26;13.13;92.92
70154;DHT22;57519;51.494;-2.626;2022-10-14T08:27:52;13.20;93.08
70154;DHT22;57519;51.494;-2.626;2022-10-14T08:30:19;13.23;93.07
70154;DHT22;57519;51.494;-2.626;2022-10-14T08:32:45;13.14;92.80
70154;DHT22;57519;51.494;-2.626;2022-10-14T08:35:10;13.13;92.77
70154;DHT22;57519;51.494;-2.626;2022-10-14T08:37:36;13.09;92.87
70154;DHT22;57519;51.494;-2.626;2022-10-14T08:40:02;13.00;92.80
70154;DHT22;57519;51.494;-2.626;2022-10-14T08:45:08;12.97;93.05
70154;DHT22;57519;51.494;-2.626;2022-10-14T08:47:38;13.00;93.17
70154;DHT22;57519;51.494;-2.626;2022-10-14T08:50:27;13.02;93.23
70154;DHT22;57519;51.494;-2.626;2022-10-14T08:52:59;13.02;93.35
70154;DHT22;57519;51.494;-2.626;2022-10-14T08:55:36;13.02;93.41
70154;DHT22;57519;51.494;-2.626;2022-10-14T09:01:21;13.03;93.49
70154;DHT22;57519;51.494;-2.626;2022-10-14T09:03:47;13.04;93.54
70154;DHT22;57519;51.494;-2.626;2022-10-14T09:08:46;13.09;93.45
70154;DHT22;57519;51.494;-2.626;2022-10-14T09:11:15;13.09;93.46
70154;DHT22;57519;51.494;-2.626;2022-10-14T09:13:44;13.06;93.62
70154;DHT22;57519;51.494;-2.626;2022-10-14T09:16:22;13.03;93.57
70154;DHT22;57519;51.494;-2.626;2022-10-14T09:18:59;13.00;93.52
70154;DHT22;57519;51.494;-2.626;2022-10-14T09:21:37;12.99;93.45
70154;DHT22;57519;51.494;-2.626;2022-10-14T09:24:15;13.03;93.43
70154;DHT22;57519;51.494;-2.626;2022-10-14T09:26:44;13.03;93.32
70154;DHT22;57519;51.494;-2.626;2022-10-14T09:32:07;13.04;93.34
70154;DHT22;57519;51.494;-2.626;2022-10-14T09:34:38;13.07;92.90
70154;DHT22;57519;51.494;-2.626;2022-10-14T09:37:33;13.21;92.76
70154;DHT22;57519;51.494;-2.626;2022-10-14T09:40:17;13.30;92.36
70154;DHT22;57519;51.494;-2.626;2022-10-14T09:42:56;13.50;92.10
70154;DHT22;57519;51.494;-2.626;2022-10-14T09:45:24;13.62;91.65
70154;DHT22;57519;51.494;-2.626;2022-10-14T09:47:57;13.68;91.63
70154;DHT22;57519;51.494;-2.626;2022-10-14T09:50:34;13.72;91.51
70154;DHT22;57519;51.494;-2.626;2022-10-14T09:53:06;13.68;91.54
70154;DHT22;57519;51.494;-2.626;2022-10-14T09:55:45;13.66;91.31
70154;DHT22;57519;51.494;-2.626;2022-10-14T09:58:15;13.71;91.54
70154;DHT22;57519;51.494;-2.626;2022-10-14T10:00:41;13.65;91.51
70154;DHT22;57519;51.494;-2.626;2022-10-14T10:03:07;13.65;91.72
70154;DHT22;57519;51.494;-2.626;2022-10-14T10:05:58;13.54;91.15
70154;DHT22;57519;51.494;-2.626;2022-10-14T10:08:24;13.48;90.93
70154;DHT22;57519;51.494;-2.626;2022-10-14T10:10:57;13.50;90.80
70154;DHT22;57519;51.494;-2.626;2022-10-14T10:13:38;13.61;90.96
70154;DHT22;57519;51.494;-2.626;2022-10-14T10:16:06;13.65;90.45
70154;DHT22;57519;51.494;-2.626;2022-10-14T10:18:32;13.71;90.67
70154;DHT22;57519;51.494;-2.626;2022-10-14T10:21:16;13.83;90.66
70154;DHT22;57519;51.494;-2.626;2022-10-14T10:24:02;13.95;90.33
70154;DHT22;57519;51.494;-2.626;2022-10-14T10:28:56;14.16;89.90
70154;DHT22;57519;51.494;-2.626;2022-10-14T10:31:43;14.20;89.66
70154;DHT22;57519;51.494;-2.626;2022-10-14T10:42:36;14.50;89.36
70154;DHT22;57519;51.494;-2.626;2022-10-14T10:48:01;14.68;87.72
70154;DHT22;57519;51.494;-2.626;2022-10-14T10:50:37;14.78;87.33
70154;DHT22;57519;51.494;-2.626;2022-10-14T11:01:36;15.29;86.35
70154;DHT22;57519;51.494;-2.626;2022-10-14T11:06:59;15.22;85.18
70154;DHT22;57519;51.494;-2.626;2022-10-14T11:12:57;15.05;85.37
70154;DHT22;57519;51.494;-2.626;2022-10-14T11:26:30;15.06;85.42
70154;DHT22;57519;51.494;-2.626;2022-10-14T11:34:47;15.05;84.86
70154;DHT22;57519;51.494;-2.626;2022-10-14T11:51:32;15.26;84.05
70154;DHT22;57519;51.494;-2.626;2022-10-14T11:57:03;15.13;84.99
70154;DHT22;57519;51.494;-2.626;2022-10-14T12:05:00;14.96;83.43
70154;DHT22;57519;51.494;-2.626;2022-10-14T12:07:41;15.03;83.33
70154;DHT22;57519;51.494;-2.626;2022-10-14T12:10:28;15.10;83.23
70154;DHT22;57519;51.494;-2.626;2022-10-14T12:12:56;15.23;82.98
70154;DHT22;57519;51.494;-2.626;2022-10-14T12:15:23;15.50;83.91
70154;DHT22;57519;51.494;-2.626;2022-10-14T12:17:53;15.53;82.55
70154;DHT22;57519;51.494;-2.626;2022-10-14T12:20:35;15.50;82.22
70154;DHT22;57519;51.494;-2.626;2022-10-14T12:23:06;15.63;83.00
70154;DHT22;57519;51.494;-2.626;2022-10-14T12:25:40;15.73;82.36
70154;DHT22;57519;51.494;-2.626;2022-10-14T12:28:11;15.94;81.71
70154;DHT22;57519;51.494;-2.626;2022-10-14T12:30:40;15.95;80.48
70154;DHT22;57519;51.494;-2.626;2022-10-14T12:33:08;15.80;78.84
70154;DHT22;57519;51.494;-2.626;2022-10-14T12:35:51;15.91;79.52
70154;DHT22;57519;51.494;-2.626;2022-10-14T12:38:19;15.95;80.22
70154;DHT22;57519;51.494;-2.626;2022-10-14T12:40:46;16.09;79.85
70154;DHT22;57519;51.494;-2.626;2022-10-14T12:43:20;16.21;79.96
70154;DHT22;57519;51.494;-2.626;2022-10-14T12:46:09;16.36;78.81
70154;DHT22;57519;51.494;-2.626;2022-10-14T12:48:43;16.25;79.37
70154;DHT22;57519;51.494;-2.626;2022-10-14T12:51:21;15.88;78.71
70154;DHT22;57519;51.494;-2.626;2022-10-14T12:54:02;15.80;79.65
70154;DHT22;57519;51.494;-2.626;2022-10-14T12:56:37;15.71;79.02
70154;DHT22;57519;51.494;-2.626;2022-10-14T12:59:06;15.74;79.30
70154;DHT22;57519;51.494;-2.626;2022-10-14T13:01:32;15.95;79.26
70154;DHT22;57519;51.494;-2.626;2022-10-14T13:04:06;16.09;79.33
70154;DHT22;57519;51.494;-2.626;2022-10-14T13:06:42;16.25;79.73
70154;DHT22;57519;51.494;-2.626;2022-10-14T13:11:44;16.70;78.69
70154;DHT22;57519;51.494;-2.626;2022-10-14T13:14:27;16.91;76.55
70154;DHT22;57519;51.494;-2.626;2022-10-14T13:16:58;17.06;76.30
70154;DHT22;57519;51.494;-2.626;2022-10-14T13:22:00;16.91;74.31
70154;DHT22;57519;51.494;-2.626;2022-10-14T13:24:31;17.06;75.27
70154;DHT22;57519;51.494;-2.626;2022-10-14T13:30:16;16.94;76.14
70154;DHT22;57519;51.494;-2.626;2022-10-14T13:33:03;16.92;76.28
70154;DHT22;57519;51.494;-2.626;2022-10-14T13:35:45;16.66;75.44
70154;DHT22;57519;51.494;-2.626;2022-10-14T13:38:14;16.46;76.23
70154;DHT22;57519;51.494;-2.626;2022-10-14T13:40:44;16.41;77.71
70154;DHT22;57519;51.494;-2.626;2022-10-14T13:43:28;16.21;78.32
70154;DHT22;57519;51.494;-2.626;2022-10-14T13:46:01;16.06;78.58
70154;DHT22;57519;51.494;-2.626;2022-10-14T13:48:31;15.98;78.84
70154;DHT22;57519;51.494;-2.626;2022-10-14T13:51:11;15.93;79.22
70154;DHT22;57519;51.494;-2.626;2022-10-14T13:53:54;15.90;79.97
70154;DHT22;57519;51.494;-2.626;2022-10-14T13:56:28;15.97;79.39
70154;DHT22;57519;51.494;-2.626;2022-10-14T13:58:55;16.09;78.47
70154;DHT22;57519;51.494;-2.626;2022-10-14T14:01:23;16.12;78.33
70154;DHT22;57519;51.494;-2.626;2022-10-14T14:03:55;16.19;78.96
70154;DHT22;57519;51.494;-2.626;2022-10-14T14:06:22;16.06;78.82
70154;DHT22;57519;51.494;-2.626;2022-10-14T14:08:49;15.91;78.30
70154;DHT22;57519;51.494;-2.626;2022-10-14T14:11:19;15.90;78.93
70154;DHT22;57519;51.494;-2.626;2022-10-14T14:13:58;15.67;80.61
70154;DHT22;57519;51.494;-2.626;2022-10-14T14:16:37;15.75;80.53
70154;DHT22;57519;51.494;-2.626;2022-10-14T14:19:04;15.83;80.76
70154;DHT22;57519;51.494;-2.626;2022-10-14T14:21:29;15.88;80.69
70154;DHT22;57519;51.494;-2.626;2022-10-14T14:23:58;15.85;80.76
70154;DHT22;57519;51.494;-2.626;2022-10-14T14:26:37;15.91;81.12
70154;DHT22;57519;51.494;-2.626;2022-10-14T14:29:14;15.95;80.82
70154;DHT22;57519;51.494;-2.626;2022-10-14T14:31:42;15.95;80.83
70154;DHT22;57519;51.494;-2.626;2022-10-14T14:34:12;15.85;81.14
70154;DHT22;57519;51.494;-2.626;2022-10-14T14:36:39;15.73;81.40
70154;DHT22;57519;51.494;-2.626;2022-10-14T14:39:05;15.63;81.28
70154;DHT22;57519;51.494;-2.626;2022-10-14T14:41:31;15.49;81.56
70154;DHT22;57519;51.494;-2.626;2022-10-14T14:44:01;15.57;81.92
70154;DHT22;57519;51.494;-2.626;2022-10-14T14:48:54;15.46;81.72
70154;DHT22;57519;51.494;-2.626;2022-10-14T14:51:21;15.54;82.00
70154;DHT22;57519;51.494;-2.626;2022-10-14T14:53:53;15.60;81.80
70154;DHT22;57519;51.494;-2.626;2022-10-14T14:56:26;15.66;81.21
70154;DHT22;57519;51.494;-2.626;2022-10-14T14:58:54;15.63;81.40
70154;DHT22;57519;51.494;-2.626;2022-10-14T15:01:27;15.68;80.43
70154;DHT22;57519;51.494;-2.626;2022-10-14T15:04:13;15.66;80.40
70154;DHT22;57519;51.494;-2.626;2022-10-14T15:06:41;15.67;79.98
70154;DHT22;57519;51.494;-2.626;2022-10-14T15:09:13;15.67;79.77
70154;DHT22;57519;51.494;-2.626;2022-10-14T15:11:50;15.63;80.12
70154;DHT22;57519;51.494;-2.626;2022-10-14T15:19:54;15.44;81.40
70154;DHT22;57519;51.494;-2.626;2022-10-14T15:22:22;15.35;81.58
70154;DHT22;57519;51.494;-2.626;2022-10-14T15:25:03;15.30;81.27
70154;DHT22;57519;51.494;-2.626;2022-10-14T15:30:21;15.23;81.99
70154;DHT22;57519;51.494;-2.626;2022-10-14T15:32:47;15.20;82.09
70154;DHT22;57519;51.494;-2.626;2022-10-14T15:35:14;15.42;81.70
70154;DHT22;57519;51.494;-2.626;2022-10-14T15:37:40;15.44;81.97
70154;DHT22;57519;51.494;-2.626;2022-10-14T15:40:20;15.50;82.08
70154;DHT22;57519;51.494;-2.626;2022-10-14T15:42:46;15.56;81.98
70154;DHT22;57519;51.494;-2.626;2022-10-14T15:45:11;15.53;81.01
70154;DHT22;57519;51.494;-2.626;2022-10-14T15:47:37;15.53;81.86
70154;DHT22;57519;51.494;-2.626;2022-10-14T15:50:17;15.56;81.55
70154;DHT22;57519;51.494;-2.626;2022-10-14T15:52:43;15.46;80.91
70154;DHT22;57519;51.494;-2.626;2022-10-14T15:55:35;15.42;80.36
70154;DHT22;57519;51.494;-2.626;2022-10-14T15:58:01;15.37;80.09
70154;DHT22;57519;51.494;-2.626;2022-10-14T16:00:27;15.32;79.70
70154;DHT22;57519;51.494;-2.626;2022-10-14T16:02:54;15.30;80.29
70154;DHT22;57519;51.494;-2.626;2022-10-14T16:05:23;15.30;80.67
70154;DHT22;57519;51.494;-2.626;2022-10-14T16:07:49;15.23;80.97
70154;DHT22;57519;51.494;-2.626;2022-10-14T16:10:17;15.18;80.72
70154;DHT22;57519;51.494;-2.626;2022-10-14T16:12:43;15.15;79.77
70154;DHT22;57519;51.494;-2.626;2022-10-14T16:17:53;15.09;79.52
70154;DHT22;57519;51.494;-2.626;2022-10-14T16:20:19;15.03;79.74
70154;DHT22;57519;51.494;-2.626;2022-10-14T16:22:45;15.06;79.51
70154;DHT22;57519;51.494;-2.626;2022-10-14T16:25:17;14.93;79.78
70154;DHT22;57519;51.494;-2.626;2022-10-14T16:27:44;14.95;80.19
70154;DHT22;57519;51.494;-2.626;2022-10-14T16:30:09;14.88;80.04
70154;DHT22;57519;51.494;-2.626;2022-10-14T16:32:35;14.82;80.37
70154;DHT22;57519;51.494;-2.626;2022-10-14T16:35:00;14.77;80.28
70154;DHT22;57519;51.494;-2.626;2022-10-14T16:37:26;14.75;80.70
70154;DHT22;57519;51.494;-2.626;2022-10-14T16:39:51;14.72;81.07
70154;DHT22;57519;51.494;-2.626;2022-10-14T16:42:17;14.67;81.60
70154;DHT22;57519;51.494;-2.626;2022-10-14T16:44:43;14.57;81.76
70154;DHT22;57519;51.494;-2.626;2022-10-14T16:47:08;14.53;81.98
70154;DHT22;57519;51.494;-2.626;2022-10-14T16:49:42;14.45;82.61
70154;DHT22;57519;51.494;-2.626;2022-10-14T16:52:08;14.38;82.65
70154;DHT22;57519;51.494;-2.626;2022-10-14T16:54:33;14.33;82.85
70154;DHT22;57519;51.494;-2.626;2022-10-14T16:56:59;14.27;83.36
70154;DHT22;57519;51.494;-2.626;2022-10-14T16:59:25;14.27;83.44
70154;DHT22;57519;51.494;-2.626;2022-10-14T17:01:52;14.23;83.72
70154;DHT22;57519;51.494;-2.626;2022-10-14T17:04:18;14.19;83.56
70154;DHT22;57519;51.494;-2.626;2022-10-14T17:06:44;14.17;83.58
70154;DHT22;57519;51.494;-2.626;2022-10-14T17:09:10;14.13;83.92
70154;DHT22;57519;51.494;-2.626;2022-10-14T17:11:36;14.08;83.86
70154;DHT22;57519;51.494;-2.626;2022-10-14T17:14:03;14.02;84.14
70154;DHT22;57519;51.494;-2.626;2022-10-14T17:16:28;13.96;84.20
70154;DHT22;57519;51.494;-2.626;2022-10-14T17:18:54;13.96;84.07
70154;DHT22;57519;51.494;-2.626;2022-10-14T17:21:20;13.90;84.18
70154;DHT22;57519;51.494;-2.626;2022-10-14T17:23:46;13.82;84.58
70154;DHT22;57519;51.494;-2.626;2022-10-14T17:26:15;13.76;84.83
70154;DHT22;57519;51.494;-2.626;2022-10-14T17:28:42;13.65;85.19
70154;DHT22;57519;51.494;-2.626;2022-10-14T17:31:11;13.54;85.41